createdAt,value
2023-01-22T00:01:45.940Z,39.60
2023-01-22T00:04:15.242Z,38.00
2023-01-22T00:06:43.943Z,35.70
2023-01-22T00:09:12.855Z,29.25
2023-01-22T00:14:11.327Z,42.80
2023-01-22T00:19:10.198Z,52.65
2023-01-22T00:21:39.012Z,46.75
2023-01-22T00:24:08.044Z,50.95
2023-01-22T00:31:34.799Z,44.73
2023-01-22T00:36:33.069Z,42.83
2023-01-22T00:39:01.799Z,45.10
2023-01-22T00:41:30.390Z,37.10
2023-01-22T00:46:27.560Z,47.58
2023-01-22T00:48:57.629Z,36.10
2023-01-22T00:53:54.658Z,42.80
2023-01-22T00:58:51.882Z,42.30
2023-01-22T01:03:48.905Z,38.00
2023-01-22T01:13:46.047Z,39.25
2023-01-22T01:16:16.729Z,47.20
2023-01-22T01:21:15.184Z,46.60
2023-01-22T01:30:20.601Z,35.80
2023-01-22T01:35:19.544Z,35.70
2023-01-22T01:37:48.343Z,30.73
2023-01-22T01:40:17.140Z,43.10
2023-01-22T01:42:45.778Z,34.40
2023-01-22T01:45:26.487Z,40.10
2023-01-22T01:47:56.581Z,42.30
2023-01-22T01:52:53.640Z,46.30
2023-01-22T01:55:25.436Z,44.50
2023-01-22T02:00:22.372Z,44.55
2023-01-22T02:02:52.602Z,38.70
2023-01-22T02:05:21.575Z,43.45
2023-01-22T02:07:50.102Z,48.30
2023-01-22T02:10:19.299Z,40.35
2023-01-22T02:16:10.241Z,46.20
2023-01-22T02:18:40.344Z,40.93
2023-01-22T02:21:23.947Z,42.70
2023-01-22T02:23:53.862Z,30.40
2023-01-22T02:26:23.188Z,37.27
2023-01-22T02:28:52.284Z,36.60
2023-01-22T02:36:17.801Z,41.90
2023-01-22T02:38:46.861Z,44.20
2023-01-22T02:41:17.037Z,36.80
2023-01-22T02:43:45.957Z,45.70
2023-01-22T02:46:15.725Z,45.30
2023-01-22T02:48:44.491Z,42.80
2023-01-22T02:51:13.180Z,42.50
2023-01-22T02:56:12.724Z,30.00
2023-01-22T03:01:19.126Z,33.10
2023-01-22T03:08:50.474Z,48.10
2023-01-22T03:14:05.291Z,44.40
2023-01-22T03:16:53.514Z,50.85
2023-01-22T03:24:42.934Z,41.20
2023-01-22T03:29:40.584Z,40.50
2023-01-22T03:37:32.681Z,39.70
2023-01-22T03:40:28.130Z,47.20
2023-01-22T03:42:56.928Z,38.80
2023-01-22T03:45:25.545Z,43.50
2023-01-22T03:50:29.050Z,48.40
2023-01-22T03:55:28.186Z,50.10
2023-01-22T03:57:56.778Z,42.60
2023-01-22T04:02:55.009Z,46.70
2023-01-22T04:05:28.744Z,43.40
2023-01-22T04:07:58.355Z,42.50
2023-01-22T04:15:30.475Z,46.50
2023-01-22T04:18:02.272Z,43.60
2023-01-22T04:25:50.826Z,35.90
2023-01-22T04:33:44.867Z,45.20
2023-01-22T04:38:50.399Z,49.80
2023-01-22T04:41:21.174Z,43.00
2023-01-22T04:43:49.788Z,41.80
2023-01-22T04:58:42.603Z,46.20
2023-01-22T05:01:11.396Z,40.80
2023-01-22T05:06:09.801Z,34.57
2023-01-22T05:08:40.701Z,49.50
2023-01-22T05:11:12.209Z,40.10
2023-01-22T05:13:50.625Z,45.50
2023-01-22T05:16:45.759Z,42.13
2023-01-22T05:19:14.491Z,46.60
2023-01-22T05:21:43.054Z,42.10
2023-01-22T05:26:42.689Z,52.15
2023-01-22T05:29:19.091Z,41.10
2023-01-22T05:32:04.502Z,45.80
2023-01-22T05:34:42.331Z,57.70
2023-01-22T05:39:40.235Z,34.10
2023-01-22T05:44:41.758Z,43.07
2023-01-22T05:47:10.701Z,43.10
2023-01-22T05:49:50.293Z,40.10
2023-01-22T05:52:19.098Z,45.50
2023-01-22T05:59:46.158Z,56.05
2023-01-22T06:02:16.050Z,48.05
2023-01-22T06:04:46.277Z,44.40
2023-01-22T06:15:19.750Z,46.90
2023-01-22T06:22:53.033Z,43.85
2023-01-22T06:30:33.320Z,51.80
2023-01-22T06:33:04.475Z,51.50
2023-01-22T06:43:05.056Z,48.25
2023-01-22T06:56:22.990Z,50.90
2023-01-22T07:03:51.580Z,43.73
2023-01-22T07:06:20.257Z,40.10
2023-01-22T07:08:48.765Z,39.40
2023-01-22T07:11:17.384Z,45.65
2023-01-22T07:23:42.127Z,51.60
2023-01-22T07:31:11.042Z,37.40
2023-01-22T07:33:39.777Z,41.20
2023-01-22T07:36:08.865Z,42.80
2023-01-22T07:38:37.471Z,41.00
2023-01-22T07:41:35.285Z,30.35
2023-01-22T07:44:13.231Z,45.30
2023-01-22T07:47:05.999Z,41.40
2023-01-22T07:49:34.522Z,46.00
2023-01-22T07:52:03.150Z,44.45
2023-01-22T07:57:02.375Z,46.50
2023-01-22T07:59:32.366Z,49.80
2023-01-22T08:04:31.998Z,55.35
2023-01-22T08:07:00.475Z,53.70
2023-01-22T08:09:29.099Z,59.40
2023-01-22T08:16:55.779Z,47.40
2023-01-22T08:26:49.404Z,51.20
2023-01-22T08:31:46.383Z,54.00
2023-01-22T08:34:16.364Z,42.90
2023-01-22T13:44:21.306Z,15.14
2023-01-22T13:46:50.623Z,34.83
2023-01-22T13:49:22.028Z,29.05
2023-01-22T13:51:50.932Z,86.68
2023-01-22T13:54:22.112Z,10.88
2023-01-22T13:56:50.656Z,17.48
2023-01-22T13:59:21.617Z,12.15
2023-01-22T14:01:50.448Z,12.80
2023-01-22T14:04:29.620Z,7.65
2023-01-22T14:06:58.067Z,7.70
2023-01-22T14:09:26.959Z,26.23
2023-01-22T14:11:55.637Z,7.85
2023-01-22T14:14:25.597Z,7.00
2023-01-22T14:16:53.997Z,6.03
2023-01-22T14:19:22.455Z,9.50
2023-01-22T14:21:50.938Z,5.80
2023-01-22T14:24:19.410Z,4.63
2023-01-22T14:26:47.737Z,7.00
2023-01-22T14:33:00.949Z,5.95
2023-01-22T14:35:30.509Z,10.35
2023-01-22T14:37:58.965Z,5.95
2023-01-22T14:40:28.202Z,5.18
2023-01-22T14:42:56.584Z,6.80
2023-01-22T14:45:25.013Z,6.53
2023-01-22T14:47:54.166Z,5.68
2023-01-22T14:50:24.083Z,6.32
2023-01-22T14:52:52.508Z,6.18
2023-01-22T14:55:21.292Z,6.30
2023-01-22T14:57:49.653Z,6.70
2023-01-22T15:00:19.354Z,6.50
2023-01-22T15:02:48.717Z,6.25
2023-01-22T15:05:17.171Z,6.30
2023-01-22T15:07:46.918Z,7.05
2023-01-22T15:10:15.295Z,6.00
2023-01-22T15:12:48.132Z,7.40
2023-01-22T15:15:16.572Z,5.80
2023-01-22T15:17:44.962Z,6.30
2023-01-22T15:20:39.187Z,5.70
2023-01-22T15:23:34.360Z,4.97
2023-01-22T15:26:03.857Z,5.85
2023-01-22T15:28:32.637Z,6.55
2023-01-22T15:31:07.534Z,6.18
2023-01-22T15:33:35.955Z,12.40
2023-01-22T15:36:04.654Z,9.05
2023-01-22T15:38:34.504Z,12.13
2023-01-22T15:41:03.851Z,14.60
2023-01-22T15:43:32.311Z,6.70
2023-01-22T15:46:00.891Z,9.73
2023-01-22T15:48:29.323Z,7.68
2023-01-22T15:51:07.280Z,6.90
2023-01-22T15:53:37.150Z,9.35
2023-01-22T15:56:06.430Z,9.88
2023-01-22T15:58:35.191Z,11.60
2023-01-22T16:01:03.713Z,11.65
2023-01-22T16:03:32.184Z,10.80
2023-01-22T16:06:09.124Z,14.70
2023-01-22T16:08:38.924Z,13.25
2023-01-22T16:11:07.839Z,10.95
2023-01-22T16:13:36.545Z,11.32
2023-01-22T16:16:05.914Z,9.55
2023-01-22T16:18:34.875Z,9.32
2023-01-22T16:21:03.615Z,8.85
2023-01-22T16:23:32.318Z,9.20
2023-01-22T16:26:02.711Z,9.43
2023-01-22T16:28:31.144Z,9.75
2023-01-22T16:31:04.041Z,10.95
2023-01-22T16:33:33.616Z,10.07
2023-01-22T16:36:02.450Z,14.57
2023-01-22T16:38:31.678Z,17.45
2023-01-22T16:41:07.354Z,9.10
2023-01-22T16:43:36.163Z,10.30
2023-01-22T16:46:05.159Z,18.30
2023-01-22T16:48:34.626Z,22.77
2023-01-22T16:51:03.169Z,11.35
2023-01-22T16:53:31.504Z,12.73
2023-01-22T16:55:59.987Z,29.23
2023-01-22T16:58:29.749Z,25.85
2023-01-22T17:00:58.085Z,47.65
2023-01-22T17:03:26.657Z,17.70
2023-01-22T17:05:54.963Z,14.65
2023-01-22T17:08:23.450Z,13.10
2023-01-22T17:10:51.791Z,18.15
2023-01-22T17:13:20.258Z,21.20
2023-01-22T17:15:52.562Z,14.73
2023-01-22T17:18:21.024Z,15.45
2023-01-22T17:21:01.635Z,11.40
2023-01-22T17:23:30.721Z,10.90
2023-01-22T17:25:59.105Z,11.02
2023-01-22T17:28:28.745Z,11.05
2023-01-22T17:31:00.450Z,9.73
2023-01-22T17:33:28.876Z,9.93
2023-01-22T17:35:59.330Z,9.90
2023-01-22T17:38:29.103Z,8.77
2023-01-22T17:40:57.529Z,9.70
2023-01-22T17:43:25.904Z,9.63
2023-01-22T17:45:54.345Z,9.45
2023-01-22T17:48:26.766Z,9.52
2023-01-22T17:50:55.261Z,8.27
2023-01-22T17:53:23.614Z,8.68
2023-01-22T17:55:52.142Z,8.80
2023-01-22T17:58:20.437Z,8.50
2023-01-22T18:00:48.995Z,7.65
2023-01-22T18:03:17.346Z,9.48
2023-01-22T18:05:47.528Z,8.90
2023-01-22T18:08:15.932Z,8.00
2023-01-22T18:10:44.336Z,7.95
2023-01-22T18:13:12.714Z,7.25
2023-01-22T18:15:41.200Z,6.55
2023-01-22T18:18:09.573Z,7.57
2023-01-22T18:20:38.079Z,7.20
2023-01-22T18:23:07.766Z,7.85
2023-01-22T18:25:41.482Z,7.35
2023-01-22T18:28:10.202Z,7.68
2023-01-22T18:30:38.667Z,6.63
2023-01-22T18:33:07.039Z,6.80
2023-01-22T18:35:36.167Z,6.68
2023-01-22T18:38:29.892Z,6.65
2023-01-22T18:41:25.196Z,5.55
2023-01-22T18:43:56.083Z,6.47
2023-01-22T18:46:25.575Z,5.60
2023-01-22T18:48:55.446Z,6.85
2023-01-22T18:51:24.527Z,13.95
2023-01-22T18:53:53.024Z,15.90
2023-01-22T18:56:21.725Z,8.93
2023-01-22T18:58:51.508Z,6.50
2023-01-22T19:01:21.396Z,7.20
2023-01-22T19:03:50.731Z,13.15
2023-01-22T19:06:19.956Z,12.20
2023-01-22T19:08:49.600Z,10.15
2023-01-22T19:11:18.253Z,13.32
2023-01-22T19:13:47.676Z,14.20
2023-01-22T19:16:18.344Z,13.32
2023-01-22T19:18:47.571Z,12.93
2023-01-22T19:21:17.143Z,10.52
2023-01-22T19:23:46.322Z,8.57
2023-01-22T19:26:16.638Z,8.65
2023-01-22T19:28:45.158Z,7.35
2023-01-22T19:31:18.678Z,7.03
2023-01-22T19:33:47.151Z,7.70
2023-01-22T19:36:16.017Z,9.55
2023-01-22T19:38:44.390Z,9.30
2023-01-22T19:41:12.867Z,10.50
2023-01-22T19:43:42.018Z,9.57
2023-01-22T19:46:11.196Z,10.13
2023-01-22T19:48:41.235Z,10.80
2023-01-22T19:51:14.452Z,10.55
2023-01-22T19:57:30.113Z,9.68
2023-01-22T19:59:59.436Z,10.93
2023-01-22T20:02:52.169Z,14.68
2023-01-22T20:05:47.534Z,11.95
2023-01-22T20:08:16.761Z,11.05
2023-01-22T20:10:45.377Z,10.80
2023-01-22T20:13:13.760Z,11.65
2023-01-22T20:15:42.615Z,12.10
2023-01-22T20:18:11.826Z,10.23
2023-01-22T20:20:40.246Z,11.55
2023-01-22T20:23:10.216Z,10.80
2023-01-22T20:25:40.286Z,9.15
2023-01-22T20:28:10.738Z,7.40
2023-01-22T20:30:39.194Z,6.97
2023-01-22T20:33:11.051Z,6.13
2023-01-22T20:35:42.015Z,6.90
2023-01-22T20:38:11.753Z,7.28
2023-01-22T20:40:42.054Z,7.25
2023-01-22T20:43:10.519Z,7.72
2023-01-22T20:45:39.011Z,7.85
2023-01-22T20:48:07.681Z,8.35
2023-01-22T20:50:36.067Z,8.52
2023-01-22T20:53:06.323Z,9.23
2023-01-22T20:55:36.143Z,10.38
2023-01-22T20:58:04.501Z,11.38
2023-01-22T21:00:32.955Z,12.73
2023-01-22T21:03:01.348Z,12.45
2023-01-22T21:05:29.939Z,12.82
2023-01-22T21:07:58.395Z,13.23
2023-01-22T21:10:26.784Z,14.18
2023-01-22T21:12:56.551Z,14.35
2023-01-22T21:15:24.885Z,15.15
2023-01-22T21:17:54.731Z,14.15
2023-01-22T21:20:23.071Z,14.25
2023-01-22T21:22:51.511Z,12.45
2023-01-22T21:25:22.314Z,12.45
2023-01-22T21:27:51.672Z,11.40
2023-01-22T21:30:21.664Z,12.38
2023-01-22T21:32:51.937Z,10.75
2023-01-22T21:35:20.424Z,12.25
2023-01-22T21:37:48.741Z,12.80
2023-01-22T21:40:19.252Z,11.15
2023-01-22T21:43:05.462Z,11.50
2023-01-22T21:45:53.006Z,11.40
2023-01-22T21:48:21.443Z,11.45
2023-01-22T21:50:49.923Z,11.43
2023-01-22T21:53:18.351Z,11.40
2023-01-22T21:55:51.392Z,12.05
2023-01-22T21:58:19.917Z,11.85
2023-01-22T22:00:49.888Z,11.88
2023-01-22T22:03:18.299Z,11.70
2023-01-22T22:05:56.040Z,11.43
2023-01-22T22:08:24.439Z,12.00
2023-01-22T22:10:52.777Z,11.70
2023-01-22T22:13:21.610Z,12.07
2023-01-22T22:15:51.652Z,13.18
2023-01-22T22:18:20.307Z,13.98
2023-01-22T22:20:48.674Z,11.65
2023-01-22T22:23:17.029Z,13.13
2023-01-22T22:25:48.895Z,11.20
2023-01-22T22:28:18.273Z,11.90
2023-01-22T22:30:46.691Z,12.40
2023-01-22T22:33:16.462Z,12.02
2023-01-22T22:35:45.976Z,12.55
2023-01-22T22:38:14.525Z,13.13
2023-01-22T22:40:42.910Z,11.55
2023-01-22T22:43:11.325Z,12.05
2023-01-22T22:45:40.054Z,12.05
2023-01-22T22:48:08.450Z,11.20
2023-01-22T22:50:40.934Z,12.13
2023-01-22T22:53:09.425Z,11.55
2023-01-22T22:56:02.648Z,12.70
2023-01-22T22:58:56.467Z,12.23
2023-01-22T23:01:25.594Z,12.32
2023-01-22T23:03:54.470Z,10.98
2023-01-22T23:06:26.305Z,12.43
2023-01-22T23:12:51.286Z,10.70
2023-01-22T23:15:19.658Z,12.15
2023-01-22T23:17:50.941Z,13.82
2023-01-22T23:20:20.256Z,11.48
2023-01-22T23:22:51.140Z,12.40
2023-01-22T23:25:19.721Z,11.65
2023-01-22T23:27:48.299Z,12.55
2023-01-22T23:30:17.304Z,12.52
2023-01-22T23:32:45.769Z,13.85
2023-01-22T23:35:14.178Z,12.75
2023-01-22T23:37:42.518Z,12.02
2023-01-22T23:40:13.249Z,11.55
2023-01-22T23:42:41.721Z,13.27
2023-01-22T23:45:11.940Z,13.43
2023-01-22T23:47:40.524Z,11.10
2023-01-22T23:50:10.242Z,11.70
2023-01-22T23:52:40.032Z,11.55
2023-01-22T23:55:09.082Z,12.07
2023-01-22T23:57:38.896Z,11.20
